sensor_id;sensor_type;location;lat;lon;timestamp;temperature;humidity
74224;SHT31;62585;49.706;18.216;2023-04-24T00:00:12;17.00;39.80
74224;SHT31;62585;49.706;18.216;2023-04-24T00:03:00;16.95;40.35
74224;SHT31;62585;49.706;18.216;2023-04-24T00:05:26;16.52;46.73
74224;SHT31;62585;49.706;18.216;2023-04-24T00:07:52;16.16;49.60
74224;SHT31;62585;49.706;18.216;2023-04-24T00:10:18;15.98;51.41
74224;SHT31;62585;49.706;18.216;2023-04-24T00:12:44;15.94;52.26
74224;SHT31;62585;49.706;18.216;2023-04-24T00:15:10;15.87;51.93
74224;SHT31;62585;49.706;18.216;2023-04-24T00:17:36;15.80;51.36
74224;SHT31;62585;49.706;18.216;2023-04-24T00:20:03;15.75;48.50
74224;SHT31;62585;49.706;18.216;2023-04-24T00:22:32;15.88;49.17
74224;SHT31;62585;49.706;18.216;2023-04-24T00:24:58;15.95;48.26
74224;SHT31;62585;49.706;18.216;2023-04-24T00:27:24;15.98;48.33
74224;SHT31;62585;49.706;18.216;2023-04-24T00:29:50;16.01;47.36
74224;SHT31;62585;49.706;18.216;2023-04-24T00:32:16;16.00;46.71
74224;SHT31;62585;49.706;18.216;2023-04-24T00:34:43;16.04;47.10
74224;SHT31;62585;49.706;18.216;2023-04-24T00:37:08;16.08;46.56
74224;SHT31;62585;49.706;18.216;2023-04-24T00:39:34;16.11;46.74
74224;SHT31;62585;49.706;18.216;2023-04-24T00:42:00;16.16;48.08
74224;SHT31;62585;49.706;18.216;2023-04-24T00:44:27;16.14;44.90
74224;SHT31;62585;49.706;18.216;2023-04-24T00:46:54;16.09;48.13
74224;SHT31;62585;49.706;18.216;2023-04-24T00:49:20;15.91;47.80
74224;SHT31;62585;49.706;18.216;2023-04-24T00:51:47;15.90;48.04
74224;SHT31;62585;49.706;18.216;2023-04-24T00:54:14;15.88;47.52
74224;SHT31;62585;49.706;18.216;2023-04-24T00:56:41;15.75;49.98
74224;SHT31;62585;49.706;18.216;2023-04-24T00:59:08;15.68;49.06
74224;SHT31;62585;49.706;18.216;2023-04-24T01:01:34;15.73;48.66
74224;SHT31;62585;49.706;18.216;2023-04-24T01:04:00;15.36;53.77
74224;SHT31;62585;49.706;18.216;2023-04-24T01:06:29;15.25;54.22
74224;SHT31;62585;49.706;18.216;2023-04-24T01:08:57;15.20;53.39
74224;SHT31;62585;49.706;18.216;2023-04-24T01:11:24;15.16;55.01
74224;SHT31;62585;49.706;18.216;2023-04-24T01:13:50;15.13;53.98
74224;SHT31;62585;49.706;18.216;2023-04-24T01:16:17;15.16;51.38
74224;SHT31;62585;49.706;18.216;2023-04-24T01:18:43;15.19;54.79
74224;SHT31;62585;49.706;18.216;2023-04-24T01:21:13;15.09;52.22
74224;SHT31;62585;49.706;18.216;2023-04-24T01:23:39;14.96;53.38
74224;SHT31;62585;49.706;18.216;2023-04-24T01:26:05;14.85;55.23
74224;SHT31;62585;49.706;18.216;2023-04-24T01:28:31;14.85;52.95
74224;SHT31;62585;49.706;18.216;2023-04-24T01:30:57;14.88;52.46
74224;SHT31;62585;49.706;18.216;2023-04-24T01:33:23;15.00;50.84
74224;SHT31;62585;49.706;18.216;2023-04-24T01:35:49;15.10;50.32
74224;SHT31;62585;49.706;18.216;2023-04-24T01:38:15;15.15;48.98
74224;SHT31;62585;49.706;18.216;2023-04-24T01:40:41;15.19;48.57
74224;SHT31;62585;49.706;18.216;2023-04-24T01:43:07;15.22;47.66
74224;SHT31;62585;49.706;18.216;2023-04-24T01:45:33;15.29;48.14
74224;SHT31;62585;49.706;18.216;2023-04-24T01:47:58;15.30;47.92
74224;SHT31;62585;49.706;18.216;2023-04-24T01:50:26;15.32;47.24
74224;SHT31;62585;49.706;18.216;2023-04-24T01:53:00;15.30;49.37
74224;SHT31;62585;49.706;18.216;2023-04-24T01:55:27;15.37;47.41
74224;SHT31;62585;49.706;18.216;2023-04-24T01:57:55;15.39;48.44
74224;SHT31;62585;49.706;18.216;2023-04-24T02:00:22;15.43;48.73
74224;SHT31;62585;49.706;18.216;2023-04-24T02:02:47;15.40;46.54
74224;SHT31;62585;49.706;18.216;2023-04-24T02:05:13;15.43;46.48
74224;SHT31;62585;49.706;18.216;2023-04-24T02:07:39;15.47;45.38
74224;SHT31;62585;49.706;18.216;2023-04-24T02:12:40;15.53;48.97
74224;SHT31;62585;49.706;18.216;2023-04-24T02:15:07;15.49;46.24
74224;SHT31;62585;49.706;18.216;2023-04-24T02:17:32;15.46;45.93
74224;SHT31;62585;49.706;18.216;2023-04-24T02:19:58;15.47;45.17
74224;SHT31;62585;49.706;18.216;2023-04-24T02:22:24;15.56;44.73
74224;SHT31;62585;49.706;18.216;2023-04-24T02:24:50;15.61;44.75
74224;SHT31;62585;49.706;18.216;2023-04-24T02:27:15;15.60;44.51
74224;SHT31;62585;49.706;18.216;2023-04-24T02:29:41;15.61;44.80
74224;SHT31;62585;49.706;18.216;2023-04-24T02:32:07;15.63;45.23
74224;SHT31;62585;49.706;18.216;2023-04-24T02:34:37;15.61;45.14
74224;SHT31;62585;49.706;18.216;2023-04-24T02:37:03;15.60;44.88
74224;SHT31;62585;49.706;18.216;2023-04-24T02:39:28;15.39;49.18
74224;SHT31;62585;49.706;18.216;2023-04-24T02:42:00;15.26;48.54
74224;SHT31;62585;49.706;18.216;2023-04-24T02:44:32;15.13;46.06
74224;SHT31;62585;49.706;18.216;2023-04-24T02:46:58;15.00;50.94
74224;SHT31;62585;49.706;18.216;2023-04-24T02:49:23;14.92;48.64
74224;SHT31;62585;49.706;18.216;2023-04-24T02:51:49;14.92;51.60
74224;SHT31;62585;49.706;18.216;2023-04-24T02:54:15;14.87;49.26
74224;SHT31;62585;49.706;18.216;2023-04-24T02:56:41;15.12;44.03
74224;SHT31;62585;49.706;18.216;2023-04-24T02:59:06;15.46;42.94
74224;SHT31;62585;49.706;18.216;2023-04-24T03:01:32;15.50;43.41
74224;SHT31;62585;49.706;18.216;2023-04-24T03:03:58;15.57;43.63
74224;SHT31;62585;49.706;18.216;2023-04-24T03:06:23;15.27;50.92
74224;SHT31;62585;49.706;18.216;2023-04-24T03:08:49;15.09;52.11
74224;SHT31;62585;49.706;18.216;2023-04-24T03:11:15;15.16;46.95
74224;SHT31;62585;49.706;18.216;2023-04-24T03:13:41;15.27;46.23
74224;SHT31;62585;49.706;18.216;2023-04-24T03:16:06;15.33;44.61
74224;SHT31;62585;49.706;18.216;2023-04-24T03:18:32;15.42;43.98
74224;SHT31;62585;49.706;18.216;2023-04-24T03:20:58;15.29;48.00
74224;SHT31;62585;49.706;18.216;2023-04-24T03:23:24;15.36;45.40
74224;SHT31;62585;49.706;18.216;2023-04-24T03:25:49;15.39;46.90
74224;SHT31;62585;49.706;18.216;2023-04-24T03:28:16;15.27;46.13
74224;SHT31;62585;49.706;18.216;2023-04-24T03:30:41;15.29;47.81
74224;SHT31;62585;49.706;18.216;2023-04-24T03:33:07;15.26;46.38
74224;SHT31;62585;49.706;18.216;2023-04-24T03:35:33;15.12;48.89
74224;SHT31;62585;49.706;18.216;2023-04-24T03:37:59;15.10;48.11
74224;SHT31;62585;49.706;18.216;2023-04-24T03:40:24;15.09;48.45
74224;SHT31;62585;49.706;18.216;2023-04-24T03:42:50;15.05;47.75
74224;SHT31;62585;49.706;18.216;2023-04-24T03:45:16;15.16;44.58
74224;SHT31;62585;49.706;18.216;2023-04-24T03:47:42;15.30;44.71
74224;SHT31;62585;49.706;18.216;2023-04-24T03:50:08;15.30;47.04
74224;SHT31;62585;49.706;18.216;2023-04-24T03:52:34;15.36;44.13
74224;SHT31;62585;49.706;18.216;2023-04-24T03:54:59;15.20;48.92
74224;SHT31;62585;49.706;18.216;2023-04-24T03:57:25;15.09;50.49
74224;SHT31;62585;49.706;18.216;2023-04-24T03:59:50;14.81;58.04
74224;SHT31;62585;49.706;18.216;2023-04-24T04:02:17;14.64;56.16
74224;SHT31;62585;49.706;18.216;2023-04-24T04:04:42;14.47;54.55
74224;SHT31;62585;49.706;18.216;2023-04-24T04:07:08;14.61;53.54
74224;SHT31;62585;49.706;18.216;2023-04-24T04:09:34;14.60;52.55
74224;SHT31;62585;49.706;18.216;2023-04-24T04:12:00;14.67;51.90
74224;SHT31;62585;49.706;18.216;2023-04-24T04:14:27;14.72;51.74
74224;SHT31;62585;49.706;18.216;2023-04-24T04:16:52;14.54;57.04
74224;SHT31;62585;49.706;18.216;2023-04-24T04:19:18;14.52;54.62
74224;SHT31;62585;49.706;18.216;2023-04-24T04:21:44;14.56;53.52
74224;SHT31;62585;49.706;18.216;2023-04-24T04:24:11;14.61;52.36
74224;SHT31;62585;49.706;18.216;2023-04-24T04:26:37;14.67;49.40
74224;SHT31;62585;49.706;18.216;2023-04-24T04:29:03;14.81;47.68
74224;SHT31;62585;49.706;18.216;2023-04-24T04:31:30;14.52;58.74
74224;SHT31;62585;49.706;18.216;2023-04-24T04:33:56;14.33;62.08
74224;SHT31;62585;49.706;18.216;2023-04-24T04:36:21;14.20;63.43
74224;SHT31;62585;49.706;18.216;2023-04-24T04:38:49;13.85;64.91
74224;SHT31;62585;49.706;18.216;2023-04-24T04:41:15;13.89;63.45
74224;SHT31;62585;49.706;18.216;2023-04-24T04:43:42;13.92;60.87
74224;SHT31;62585;49.706;18.216;2023-04-24T04:46:08;14.03;59.50
74224;SHT31;62585;49.706;18.216;2023-04-24T04:48:35;14.12;59.67
74224;SHT31;62585;49.706;18.216;2023-04-24T04:51:02;14.34;58.14
74224;SHT31;62585;49.706;18.216;2023-04-24T04:53:27;14.47;57.66
74224;SHT31;62585;49.706;18.216;2023-04-24T04:55:53;14.59;56.48
74224;SHT31;62585;49.706;18.216;2023-04-24T04:58:19;14.63;56.76
74224;SHT31;62585;49.706;18.216;2023-04-24T05:00:45;14.56;56.83
74224;SHT31;62585;49.706;18.216;2023-04-24T05:03:11;14.45;59.58
74224;SHT31;62585;49.706;18.216;2023-04-24T05:05:37;14.51;58.38
74224;SHT31;62585;49.706;18.216;2023-04-24T05:08:07;14.61;55.73
74224;SHT31;62585;49.706;18.216;2023-04-24T05:10:34;14.65;57.08
74224;SHT31;62585;49.706;18.216;2023-04-24T05:12:59;14.71;56.61
74224;SHT31;62585;49.706;18.216;2023-04-24T05:15:28;14.75;61.57
74224;SHT31;62585;49.706;18.216;2023-04-24T05:18:00;14.85;56.81
74224;SHT31;62585;49.706;18.216;2023-04-24T05:20:45;15.02;54.32
74224;SHT31;62585;49.706;18.216;2023-04-24T05:23:19;15.18;54.10
74224;SHT31;62585;49.706;18.216;2023-04-24T05:25:45;15.20;55.37
74224;SHT31;62585;49.706;18.216;2023-04-24T05:28:11;15.36;54.44
74224;SHT31;62585;49.706;18.216;2023-04-24T05:30:37;15.46;53.98
74224;SHT31;62585;49.706;18.216;2023-04-24T05:33:03;15.51;53.76
74224;SHT31;62585;49.706;18.216;2023-04-24T05:35:29;15.53;54.67
74224;SHT31;62585;49.706;18.216;2023-04-24T05:37:54;15.56;52.36
74224;SHT31;62585;49.706;18.216;2023-04-24T05:40:20;15.63;51.43
74224;SHT31;62585;49.706;18.216;2023-04-24T05:42:46;15.64;55.57
74224;SHT31;62585;49.706;18.216;2023-04-24T05:45:12;15.71;55.25
74224;SHT31;62585;49.706;18.216;2023-04-24T05:47:42;15.71;54.67
74224;SHT31;62585;49.706;18.216;2023-04-24T05:50:10;15.57;51.98
74224;SHT31;62585;49.706;18.216;2023-04-24T05:52:36;15.51;54.32
74224;SHT31;62585;49.706;18.216;2023-04-24T05:55:02;15.58;56.66
74224;SHT31;62585;49.706;18.216;2023-04-24T05:57:27;15.68;55.48
74224;SHT31;62585;49.706;18.216;2023-04-24T05:59:53;15.57;53.56
74224;SHT31;62585;49.706;18.216;2023-04-24T06:02:19;15.64;53.13
74224;SHT31;62585;49.706;18.216;2023-04-24T06:04:45;15.71;53.27
74224;SHT31;62585;49.706;18.216;2023-04-24T06:07:11;15.61;53.23
74224;SHT31;62585;49.706;18.216;2023-04-24T06:09:37;15.60;53.00
74224;SHT31;62585;49.706;18.216;2023-04-24T06:12:03;15.58;56.27
74224;SHT31;62585;49.706;18.216;2023-04-24T06:14:29;15.66;54.37
74224;SHT31;62585;49.706;18.216;2023-04-24T06:16:54;15.67;54.40
74224;SHT31;62585;49.706;18.216;2023-04-24T06:19:20;15.64;54.23
74224;SHT31;62585;49.706;18.216;2023-04-24T06:21:46;15.67;57.12
74224;SHT31;62585;49.706;18.216;2023-04-24T06:24:14;15.68;58.32
74224;SHT31;62585;49.706;18.216;2023-04-24T06:26:39;15.63;59.18
74224;SHT31;62585;49.706;18.216;2023-04-24T06:29:06;15.63;59.80
74224;SHT31;62585;49.706;18.216;2023-04-24T06:31:32;15.57;57.68
74224;SHT31;62585;49.706;18.216;2023-04-24T06:34:03;15.58;58.85
74224;SHT31;62585;49.706;18.216;2023-04-24T06:36:29;15.53;59.53
74224;SHT31;62585;49.706;18.216;2023-04-24T06:38:56;15.49;59.64
74224;SHT31;62585;49.706;18.216;2023-04-24T06:41:22;15.51;57.57
74224;SHT31;62585;49.706;18.216;2023-04-24T06:43:48;15.53;56.57
74224;SHT31;62585;49.706;18.216;2023-04-24T06:46:14;15.51;55.45
74224;SHT31;62585;49.706;18.216;2023-04-24T06:48:40;15.42;56.61
74224;SHT31;62585;49.706;18.216;2023-04-24T06:51:05;15.43;56.78
74224;SHT31;62585;49.706;18.216;2023-04-24T06:53:31;15.37;58.38
74224;SHT31;62585;49.706;18.216;2023-04-24T06:55:57;15.46;59.77
74224;SHT31;62585;49.706;18.216;2023-04-24T06:58:24;15.36;61.68
74224;SHT31;62585;49.706;18.216;2023-04-24T07:00:50;15.35;62.47
74224;SHT31;62585;49.706;18.216;2023-04-24T07:03:16;15.43;62.28
74224;SHT31;62585;49.706;18.216;2023-04-24T07:05:41;15.39;61.24
74224;SHT31;62585;49.706;18.216;2023-04-24T07:08:08;15.43;57.62
74224;SHT31;62585;49.706;18.216;2023-04-24T07:10:36;15.33;54.14
74224;SHT31;62585;49.706;18.216;2023-04-24T07:13:02;15.43;55.09
74224;SHT31;62585;49.706;18.216;2023-04-24T07:15:28;15.40;59.07
74224;SHT31;62585;49.706;18.216;2023-04-24T07:17:54;15.42;57.33
74224;SHT31;62585;49.706;18.216;2023-04-24T07:20:19;15.43;56.05
74224;SHT31;62585;49.706;18.216;2023-04-24T07:22:45;15.32;56.07
74224;SHT31;62585;49.706;18.216;2023-04-24T07:25:11;15.35;56.18
74224;SHT31;62585;49.706;18.216;2023-04-24T07:27:37;15.49;56.93
74224;SHT31;62585;49.706;18.216;2023-04-24T07:30:04;15.63;56.28
74224;SHT31;62585;49.706;18.216;2023-04-24T07:32:30;15.63;57.33
74224;SHT31;62585;49.706;18.216;2023-04-24T07:34:55;15.71;58.49
74224;SHT31;62585;49.706;18.216;2023-04-24T07:37:22;15.77;61.54
74224;SHT31;62585;49.706;18.216;2023-04-24T07:39:48;15.83;59.39
74224;SHT31;62585;49.706;18.216;2023-04-24T07:42:14;15.97;58.37
74224;SHT31;62585;49.706;18.216;2023-04-24T07:44:40;15.88;56.23
74224;SHT31;62585;49.706;18.216;2023-04-24T07:47:06;16.00;56.44
74224;SHT31;62585;49.706;18.216;2023-04-24T07:49:31;16.04;56.47
74224;SHT31;62585;49.706;18.216;2023-04-24T07:51:59;16.01;56.72
74224;SHT31;62585;49.706;18.216;2023-04-24T07:54:27;15.91;56.99
74224;SHT31;62585;49.706;18.216;2023-04-24T07:56:52;16.02;57.17
74224;SHT31;62585;49.706;18.216;2023-04-24T07:59:18;16.05;56.82
74224;SHT31;62585;49.706;18.216;2023-04-24T08:01:44;16.04;57.31
74224;SHT31;62585;49.706;18.216;2023-04-24T08:04:09;15.84;57.12
74224;SHT31;62585;49.706;18.216;2023-04-24T08:06:35;15.87;57.45
74224;SHT31;62585;49.706;18.216;2023-04-24T08:09:01;15.81;59.14
74224;SHT31;62585;49.706;18.216;2023-04-24T08:11:27;15.84;59.16
74224;SHT31;62585;49.706;18.216;2023-04-24T08:13:53;15.80;60.78
74224;SHT31;62585;49.706;18.216;2023-04-24T08:16:20;15.85;61.77
74224;SHT31;62585;49.706;18.216;2023-04-24T08:18:45;15.73;64.21
74224;SHT31;62585;49.706;18.216;2023-04-24T08:21:11;15.77;64.08
74224;SHT31;62585;49.706;18.216;2023-04-24T08:23:42;15.81;63.60
74224;SHT31;62585;49.706;18.216;2023-04-24T08:26:08;15.73;62.77
74224;SHT31;62585;49.706;18.216;2023-04-24T08:28:34;15.81;62.46
74224;SHT31;62585;49.706;18.216;2023-04-24T08:31:00;15.75;64.52
74224;SHT31;62585;49.706;18.216;2023-04-24T08:33:25;15.88;64.05
74224;SHT31;62585;49.706;18.216;2023-04-24T08:35:52;15.58;64.67
74224;SHT31;62585;49.706;18.216;2023-04-24T08:38:17;15.66;65.44
74224;SHT31;62585;49.706;18.216;2023-04-24T08:40:44;15.67;65.53
74224;SHT31;62585;49.706;18.216;2023-04-24T08:43:12;15.84;65.60
74224;SHT31;62585;49.706;18.216;2023-04-24T08:45:40;15.93;64.31
74224;SHT31;62585;49.706;18.216;2023-04-24T08:48:07;16.06;63.34
74224;SHT31;62585;49.706;18.216;2023-04-24T08:50:34;16.26;63.85
74224;SHT31;62585;49.706;18.216;2023-04-24T08:53:01;16.49;61.19
74224;SHT31;62585;49.706;18.216;2023-04-24T08:55:29;16.70;56.59
74224;SHT31;62585;49.706;18.216;2023-04-24T08:57:56;16.94;54.41
74224;SHT31;62585;49.706;18.216;2023-04-24T09:00:22;16.92;52.54
74224;SHT31;62585;49.706;18.216;2023-04-24T09:02:49;16.95;58.43
74224;SHT31;62585;49.706;18.216;2023-04-24T09:05:21;16.83;60.76
74224;SHT31;62585;49.706;18.216;2023-04-24T09:07:51;16.81;60.59
74224;SHT31;62585;49.706;18.216;2023-04-24T09:10:19;16.97;60.31
74224;SHT31;62585;49.706;18.216;2023-04-24T09:12:46;16.85;60.43
74224;SHT31;62585;49.706;18.216;2023-04-24T09:15:12;16.94;60.47
74224;SHT31;62585;49.706;18.216;2023-04-24T09:17:38;17.10;62.21
74224;SHT31;62585;49.706;18.216;2023-04-24T09:20:05;17.15;56.33
74224;SHT31;62585;49.706;18.216;2023-04-24T09:22:31;17.27;56.01
74224;SHT31;62585;49.706;18.216;2023-04-24T09:25:03;17.25;55.11
74224;SHT31;62585;49.706;18.216;2023-04-24T09:27:29;17.24;54.05
74224;SHT31;62585;49.706;18.216;2023-04-24T09:29:57;17.34;55.37
74224;SHT31;62585;49.706;18.216;2023-04-24T09:32:24;17.45;54.12
74224;SHT31;62585;49.706;18.216;2023-04-24T09:35:24;17.62;53.31
74224;SHT31;62585;49.706;18.216;2023-04-24T09:37:50;17.75;53.19
74224;SHT31;62585;49.706;18.216;2023-04-24T09:40:22;17.66;51.66
74224;SHT31;62585;49.706;18.216;2023-04-24T09:42:53;17.56;52.65
74224;SHT31;62585;49.706;18.216;2023-04-24T09:45:19;17.39;49.30
74224;SHT31;62585;49.706;18.216;2023-04-24T09:47:45;17.28;51.24
74224;SHT31;62585;49.706;18.216;2023-04-24T09:50:15;17.24;51.65
74224;SHT31;62585;49.706;18.216;2023-04-24T09:52:46;17.08;50.82
74224;SHT31;62585;49.706;18.216;2023-04-24T09:55:18;16.97;50.30
74224;SHT31;62585;49.706;18.216;2023-04-24T09:57:58;16.87;50.42
74224;SHT31;62585;49.706;18.216;2023-04-24T10:00:30;16.80;50.96
74224;SHT31;62585;49.706;18.216;2023-04-24T10:03:00;16.69;50.29
74224;SHT31;62585;49.706;18.216;2023-04-24T10:05:31;16.77;51.49
74224;SHT31;62585;49.706;18.216;2023-04-24T10:08:07;16.73;51.22
74224;SHT31;62585;49.706;18.216;2023-04-24T10:10:41;16.55;51.61
74224;SHT31;62585;49.706;18.216;2023-04-24T10:13:08;16.49;51.78
74224;SHT31;62585;49.706;18.216;2023-04-24T10:15:36;16.46;52.39
74224;SHT31;62585;49.706;18.216;2023-04-24T10:18:03;16.41;52.37
74224;SHT31;62585;49.706;18.216;2023-04-24T10:20:35;16.36;52.95
74224;SHT31;62585;49.706;18.216;2023-04-24T10:23:01;16.34;53.90
74224;SHT31;62585;49.706;18.216;2023-04-24T10:25:29;16.33;53.72
74224;SHT31;62585;49.706;18.216;2023-04-24T10:27:56;16.33;53.72
74224;SHT31;62585;49.706;18.216;2023-04-24T10:30:34;16.21;55.14
74224;SHT31;62585;49.706;18.216;2023-04-24T10:33:04;16.15;55.01
74224;SHT31;62585;49.706;18.216;2023-04-24T10:35:37;16.09;55.71
74224;SHT31;62585;49.706;18.216;2023-04-24T10:38:07;16.09;55.33
74224;SHT31;62585;49.706;18.216;2023-04-24T10:40:36;15.91;55.91
74224;SHT31;62585;49.706;18.216;2023-04-24T10:43:03;15.90;55.78
74224;SHT31;62585;49.706;18.216;2023-04-24T10:45:31;15.95;57.16
74224;SHT31;62585;49.706;18.216;2023-04-24T10:50:45;16.06;57.32
74224;SHT31;62585;49.706;18.216;2023-04-24T10:53:21;16.04;56.23
74224;SHT31;62585;49.706;18.216;2023-04-24T10:55:49;16.01;58.05
74224;SHT31;62585;49.706;18.216;2023-04-24T10:58:16;15.93;57.47
74224;SHT31;62585;49.706;18.216;2023-04-24T11:00:43;15.81;58.07
74224;SHT31;62585;49.706;18.216;2023-04-24T11:03:32;15.63;59.74
74224;SHT31;62585;49.706;18.216;2023-04-24T11:06:05;15.67;60.99
74224;SHT31;62585;49.706;18.216;2023-04-24T11:08:45;15.60;60.51
74224;SHT31;62585;49.706;18.216;2023-04-24T11:16:29;15.64;61.05
74224;SHT31;62585;49.706;18.216;2023-04-24T11:27:14;15.53;61.88
74224;SHT31;62585;49.706;18.216;2023-04-24T11:29:44;15.66;62.47
74224;SHT31;62585;49.706;18.216;2023-04-24T11:32:15;15.60;64.20
74224;SHT31;62585;49.706;18.216;2023-04-24T11:34:48;15.51;63.98
74224;SHT31;62585;49.706;18.216;2023-04-24T11:37:15;15.53;63.21
74224;SHT31;62585;49.706;18.216;2023-04-24T11:39:40;15.50;64.23
74224;SHT31;62585;49.706;18.216;2023-04-24T11:42:07;15.46;64.66
74224;SHT31;62585;49.706;18.216;2023-04-24T11:44:34;15.44;65.22
74224;SHT31;62585;49.706;18.216;2023-04-24T11:47:05;15.33;65.10
74224;SHT31;62585;49.706;18.216;2023-04-24T11:49:32;15.29;66.23
74224;SHT31;62585;49.706;18.216;2023-04-24T11:52:00;15.25;67.35
74224;SHT31;62585;49.706;18.216;2023-04-24T11:54:26;15.26;68.42
74224;SHT31;62585;49.706;18.216;2023-04-24T11:56:56;15.16;70.45
74224;SHT31;62585;49.706;18.216;2023-04-24T11:59:22;15.22;71.39
74224;SHT31;62585;49.706;18.216;2023-04-24T12:01:48;15.27;68.40
74224;SHT31;62585;49.706;18.216;2023-04-24T12:04:15;15.25;70.10
74224;SHT31;62585;49.706;18.216;2023-04-24T12:09:26;15.03;71.26
74224;SHT31;62585;49.706;18.216;2023-04-24T12:11:53;15.18;69.29
74224;SHT31;62585;49.706;18.216;2023-04-24T12:14:20;15.10;68.87
74224;SHT31;62585;49.706;18.216;2023-04-24T12:16:48;15.10;69.40
74224;SHT31;62585;49.706;18.216;2023-04-24T12:19:21;15.12;71.01
74224;SHT31;62585;49.706;18.216;2023-04-24T12:22:03;15.12;71.08
74224;SHT31;62585;49.706;18.216;2023-04-24T12:24:30;15.03;67.83
74224;SHT31;62585;49.706;18.216;2023-04-24T12:26:57;14.98;68.37
74224;SHT31;62585;49.706;18.216;2023-04-24T12:29:24;14.93;68.36
74224;SHT31;62585;49.706;18.216;2023-04-24T12:31:50;14.82;69.10
74224;SHT31;62585;49.706;18.216;2023-04-24T12:34:22;14.67;68.91
74224;SHT31;62585;49.706;18.216;2023-04-24T12:36:49;14.61;70.20
74224;SHT31;62585;49.706;18.216;2023-04-24T12:39:16;14.59;69.54
74224;SHT31;62585;49.706;18.216;2023-04-24T12:42:08;14.56;70.50
74224;SHT31;62585;49.706;18.216;2023-04-24T12:44:34;14.65;68.93
74224;SHT31;62585;49.706;18.216;2023-04-24T12:47:01;14.56;70.95
74224;SHT31;62585;49.706;18.216;2023-04-24T12:49:27;14.54;70.61
74224;SHT31;62585;49.706;18.216;2023-04-24T12:51:53;14.43;71.48
74224;SHT31;62585;49.706;18.216;2023-04-24T12:54:19;14.51;70.74
74224;SHT31;62585;49.706;18.216;2023-04-24T12:56:45;14.40;71.18
74224;SHT31;62585;49.706;18.216;2023-04-24T12:59:11;14.43;71.17
74224;SHT31;62585;49.706;18.216;2023-04-24T13:01:36;14.47;71.07
74224;SHT31;62585;49.706;18.216;2023-04-24T13:04:02;14.47;71.95
74224;SHT31;62585;49.706;18.216;2023-04-24T13:06:28;14.38;71.02
74224;SHT31;62585;49.706;18.216;2023-04-24T13:08:53;14.43;71.97
74224;SHT31;62585;49.706;18.216;2023-04-24T13:11:21;14.44;70.57
74224;SHT31;62585;49.706;18.216;2023-04-24T13:13:47;14.41;71.54
74224;SHT31;62585;49.706;18.216;2023-04-24T13:16:13;14.45;71.62
74224;SHT31;62585;49.706;18.216;2023-04-24T13:18:39;14.44;71.36
74224;SHT31;62585;49.706;18.216;2023-04-24T13:21:04;14.48;72.07
74224;SHT31;62585;49.706;18.216;2023-04-24T13:23:30;14.44;72.09
74224;SHT31;62585;49.706;18.216;2023-04-24T13:25:56;14.52;71.70
74224;SHT31;62585;49.706;18.216;2023-04-24T13:28:23;14.52;72.47
74224;SHT31;62585;49.706;18.216;2023-04-24T13:30:50;14.59;71.73
74224;SHT31;62585;49.706;18.216;2023-04-24T13:33:16;14.59;71.19
74224;SHT31;62585;49.706;18.216;2023-04-24T13:35:42;14.60;71.56
74224;SHT31;62585;49.706;18.216;2023-04-24T13:38:08;14.75;70.81
74224;SHT31;62585;49.706;18.216;2023-04-24T13:40:34;14.60;71.91
74224;SHT31;62585;49.706;18.216;2023-04-24T13:42:59;14.64;70.74
74224;SHT31;62585;49.706;18.216;2023-04-24T13:45:26;14.60;71.71
74224;SHT31;62585;49.706;18.216;2023-04-24T13:47:52;14.68;72.11
74224;SHT31;62585;49.706;18.216;2023-04-24T13:50:19;14.71;71.24
74224;SHT31;62585;49.706;18.216;2023-04-24T13:52:45;14.77;70.42
74224;SHT31;62585;49.706;18.216;2023-04-24T13:55:11;14.79;70.41
74224;SHT31;62585;49.706;18.216;2023-04-24T13:57:37;14.77;70.74
74224;SHT31;62585;49.706;18.216;2023-04-24T14:00:03;14.78;70.57
74224;SHT31;62585;49.706;18.216;2023-04-24T14:02:29;14.77;69.94
74224;SHT31;62585;49.706;18.216;2023-04-24T14:04:55;14.82;69.69
74224;SHT31;62585;49.706;18.216;2023-04-24T14:07:21;14.84;69.83
74224;SHT31;62585;49.706;18.216;2023-04-24T14:09:47;14.85;69.01
74224;SHT31;62585;49.706;18.216;2023-04-24T14:12:13;14.87;68.78
74224;SHT31;62585;49.706;18.216;2023-04-24T14:14:39;14.78;68.48
74224;SHT31;62585;49.706;18.216;2023-04-24T14:17:05;14.84;68.79
74224;SHT31;62585;49.706;18.216;2023-04-24T14:19:31;14.85;68.80
74224;SHT31;62585;49.706;18.216;2023-04-24T14:21:57;14.85;68.34
74224;SHT31;62585;49.706;18.216;2023-04-24T14:24:24;14.81;67.60
74224;SHT31;62585;49.706;18.216;2023-04-24T14:26:49;14.89;67.61
74224;SHT31;62585;49.706;18.216;2023-04-24T14:29:15;14.89;67.82
74224;SHT31;62585;49.706;18.216;2023-04-24T14:31:42;14.92;67.23
74224;SHT31;62585;49.706;18.216;2023-04-24T14:34:08;14.89;67.48
74224;SHT31;62585;49.706;18.216;2023-04-24T14:36:34;14.87;68.12
74224;SHT31;62585;49.706;18.216;2023-04-24T14:39:00;14.93;68.78
74224;SHT31;62585;49.706;18.216;2023-04-24T14:41:31;14.78;69.25
74224;SHT31;62585;49.706;18.216;2023-04-24T14:43:57;14.74;70.59
74224;SHT31;62585;49.706;18.216;2023-04-24T14:46:22;14.74;71.28
74224;SHT31;62585;49.706;18.216;2023-04-24T14:48:48;14.37;72.59
74224;SHT31;62585;49.706;18.216;2023-04-24T14:51:14;14.32;73.13
74224;SHT31;62585;49.706;18.216;2023-04-24T14:53:40;14.20;74.15
74224;SHT31;62585;49.706;18.216;2023-04-24T14:56:06;14.22;73.95
74224;SHT31;62585;49.706;18.216;2023-04-24T14:58:31;14.12;74.09
74224;SHT31;62585;49.706;18.216;2023-04-24T15:00:58;14.12;73.59
74224;SHT31;62585;49.706;18.216;2023-04-24T15:03:24;13.96;73.87
74224;SHT31;62585;49.706;18.216;2023-04-24T15:05:49;14.01;73.43
74224;SHT31;62585;49.706;18.216;2023-04-24T15:08:16;13.99;73.09
74224;SHT31;62585;49.706;18.216;2023-04-24T15:10:43;14.06;72.99
74224;SHT31;62585;49.706;18.216;2023-04-24T15:13:11;14.08;73.70
74224;SHT31;62585;49.706;18.216;2023-04-24T15:15:37;14.03;73.71
74224;SHT31;62585;49.706;18.216;2023-04-24T15:18:04;13.87;74.56
74224;SHT31;62585;49.706;18.216;2023-04-24T15:20:30;13.96;74.36
74224;SHT31;62585;49.706;18.216;2023-04-24T15:22:56;13.98;74.06
74224;SHT31;62585;49.706;18.216;2023-04-24T15:25:24;14.08;73.34
74224;SHT31;62585;49.706;18.216;2023-04-24T15:27:50;14.08;73.26
74224;SHT31;62585;49.706;18.216;2023-04-24T15:30:16;13.96;73.71
74224;SHT31;62585;49.706;18.216;2023-04-24T15:32:42;14.10;73.37
74224;SHT31;62585;49.706;18.216;2023-04-24T15:35:08;14.08;72.86